Time;durP1;ratioP1;P1;durP2;ratioP2;P2;SDS_P1;SDS_P2;PMS_P1;PMS_P2;Temp;Humidity;BMP_temperature;BMP_pressure;BME280_temperature;BME280_humidity;BME280_pressure;Samples;Min_cycle;Max_cycle;Signal;HPM_P1;HPM_P2
2023/01/17 00:01:35;;;;;;;9.52;1.83;;;3.60;99.90;;;;;;5053197;28;20171;-80
2023/01/17 00:12:13;;;;;;;2.42;2.03;;;3.70;99.90;;;;;;5054259;28;20178;-85
2023/01/17 00:14:39;;;;;;;5.70;2.30;;;3.70;99.90;;;;;;5054330;28;20191;-81
2023/01/17 00:17:05;;;;;;;2.97;2.28;;;3.80;99.90;;;;;;5053986;28;20226;-84
2023/01/17 01:34:34;;;;;;;6.57;2.45;;;3.50;99.90;;;;;;5053599;28;20190;-85
2023/01/17 01:36:59;;;;;;;5.63;2.55;;;3.50;99.90;;;;;;5051840;28;20226;-86
2023/01/17 01:39:25;;;;;;;3.33;2.28;;;3.40;99.90;;;;;;5053181;28;20174;-82
2023/01/17 01:41:50;;;;;;;6.70;2.40;;;3.30;99.90;;;;;;5052717;28;20250;-82
2023/01/17 01:44:40;;;;;;;7.03;2.78;;;3.40;99.90;;;;;;5052957;28;20189;-81
2023/01/17 01:47:12;;;;;;;3.63;2.65;;;3.50;99.90;;;;;;5053020;28;20164;-85
2023/01/17 01:49:38;;;;;;;8.23;3.03;;;3.50;99.90;;;;;;5052964;28;20194;-84
2023/01/17 01:52:06;;;;;;;12.13;3.22;;;3.30;99.90;;;;;;5052985;28;20179;-83
2023/01/17 01:54:43;;;;;;;5.75;2.95;;;3.20;99.90;;;;;;5052828;28;20648;-83
2023/01/17 01:57:13;;;;;;;3.88;3.17;;;3.40;99.90;;;;;;5051121;28;20206;-85
2023/01/17 01:59:46;;;;;;;8.95;2.78;;;3.50;99.90;;;;;;5051274;28;20167;-82
2023/01/17 02:02:12;;;;;;;3.97;3.40;;;3.60;99.90;;;;;;5051794;28;20167;-81
2023/01/17 02:04:38;;;;;;;5.35;3.85;;;3.50;99.90;;;;;;5053179;28;20241;-83
2023/01/17 02:07:15;;;;;;;4.70;3.70;;;3.30;99.90;;;;;;5052747;28;20164;-84
2023/01/17 02:09:41;;;;;;;3.90;3.50;;;3.30;99.90;;;;;;5052411;28;20167;-81
2023/01/17 02:12:08;;;;;;;4.53;3.95;;;3.20;99.90;;;;;;5053327;28;20528;-83
2023/01/17 02:14:33;;;;;;;3.83;3.42;;;3.30;99.90;;;;;;5052107;28;20532;-82
2023/01/17 02:17:12;;;;;;;5.18;4.38;;;3.20;99.90;;;;;;5052644;28;20645;-83
2023/01/17 02:19:59;;;;;;;4.25;3.38;;;3.20;99.90;;;;;;5050979;28;20187;-83
2023/01/17 02:22:49;;;;;;;6.13;2.90;;;3.20;99.90;;;;;;5051147;28;20167;-85
2023/01/17 02:25:47;;;;;;;6.20;4.13;;;3.20;99.90;;;;;;5052300;28;20245;-84
2023/01/17 02:28:13;;;;;;;6.93;4.05;;;3.00;99.90;;;;;;5051213;28;20179;-84
2023/01/17 02:30:44;;;;;;;4.03;3.60;;;2.80;99.90;;;;;;5050978;28;20654;-86
2023/01/17 02:33:29;;;;;;;11.65;4.65;;;2.80;99.90;;;;;;5051305;28;20178;-83
2023/01/17 02:36:30;;;;;;;15.00;4.72;;;2.80;99.90;;;;;;5052263;28;20276;-83
2023/01/17 02:39:02;;;;;;;10.35;5.15;;;2.90;99.90;;;;;;5052574;28;20175;-82
2023/01/17 02:41:59;;;;;;;6.20;4.53;;;3.10;99.90;;;;;;5052435;28;20186;-85
2023/01/17 02:44:25;;;;;;;6.35;4.50;;;3.30;99.90;;;;;;5049669;28;20231;-83
2023/01/17 02:46:56;;;;;;;15.38;5.65;;;3.00;99.90;;;;;;5055790;28;20222;-83
2023/01/17 02:49:28;;;;;;;5.93;5.22;;;2.90;99.90;;;;;;5054425;28;20220;-82
2023/01/17 02:51:53;;;;;;;10.65;4.75;;;2.90;99.90;;;;;;5054759;28;20178;-83
2023/01/17 02:54:28;;;;;;;7.38;5.40;;;3.00;99.90;;;;;;5054610;28;20187;-82
2023/01/17 02:57:21;;;;;;;13.50;5.10;;;3.00;99.90;;;;;;5054557;28;20206;-82
2023/01/17 03:00:04;;;;;;;6.80;5.13;;;2.90;99.90;;;;;;5055771;28;20163;-81
2023/01/17 03:02:41;;;;;;;6.63;5.07;;;3.00;99.90;;;;;;5054539;28;20524;-82
2023/01/17 03:05:22;;;;;;;11.98;5.00;;;2.90;99.90;;;;;;5054694;28;20190;-83
2023/01/17 03:07:50;;;;;;;12.60;5.25;;;3.00;99.90;;;;;;5054277;28;20171;-82
2023/01/17 03:10:19;;;;;;;11.40;5.57;;;2.90;99.90;;;;;;5054454;28;20171;-83
2023/01/17 03:12:45;;;;;;;8.77;5.40;;;3.00;99.90;;;;;;5055419;28;20174;-85
2023/01/17 03:15:13;;;;;;;7.03;4.85;;;3.10;99.90;;;;;;5054332;28;20199;-84
2023/01/17 03:17:47;;;;;;;12.23;5.22;;;3.10;99.90;;;;;;5054230;28;20203;-84
2023/01/17 03:20:12;;;;;;;7.90;5.18;;;3.10;99.90;;;;;;5054399;28;20182;-83
2023/01/17 03:22:38;;;;;;;5.35;4.85;;;3.00;99.90;;;;;;5054114;28;20167;-83
2023/01/17 03:25:05;;;;;;;10.73;5.63;;;2.80;99.90;;;;;;5054634;28;20278;-84
2023/01/17 03:27:30;;;;;;;13.68;5.28;;;2.80;99.90;;;;;;5065865;28;20170;-82
2023/01/17 03:29:56;;;;;;;6.55;4.95;;;2.80;99.90;;;;;;5054904;28;20175;-83
2023/01/17 03:32:22;;;;;;;9.68;5.00;;;2.80;99.90;;;;;;5064394;28;20223;-85
2023/01/17 03:34:47;;;;;;;10.52;4.82;;;2.60;99.90;;;;;;5061397;28;20653;-82
2023/01/17 03:37:13;;;;;;;7.32;6.10;;;2.70;99.90;;;;;;5056175;28;20254;-83
2023/01/17 03:39:39;;;;;;;8.85;5.10;;;2.60;99.90;;;;;;5064700;28;20167;-84
2023/01/17 03:42:05;;;;;;;11.35;5.50;;;2.70;99.90;;;;;;5060971;28;20175;-83
2023/01/17 03:44:33;;;;;;;7.85;6.00;;;2.70;99.90;;;;;;5069212;28;20190;-82
2023/01/17 03:47:01;;;;;;;10.90;5.53;;;2.60;99.90;;;;;;5073759;28;20168;-82
2023/01/17 03:49:28;;;;;;;6.85;5.57;;;2.60;99.90;;;;;;5068191;28;20168;-81
2023/01/17 03:51:53;;;;;;;12.68;6.35;;;2.50;99.90;;;;;;5056890;28;20163;-83
2023/01/17 03:54:20;;;;;;;16.15;5.03;;;2.80;99.90;;;;;;5062671;28;20562;-80
2023/01/17 03:56:45;;;;;;;9.55;6.50;;;2.80;99.90;;;;;;5062137;28;20732;-82
2023/01/17 03:59:11;;;;;;;7.07;5.40;;;2.90;99.90;;;;;;5063493;28;20246;-82
2023/01/17 04:01:40;;;;;;;10.68;5.15;;;2.80;99.90;;;;;;5063304;28;20174;-84
2023/01/17 04:04:07;;;;;;;5.90;5.30;;;2.70;99.90;;;;;;5066571;28;20198;-85
2023/01/17 04:06:32;;;;;;;10.48;5.90;;;2.70;99.90;;;;;;5066627;28;20163;-83
2023/01/17 04:08:58;;;;;;;10.77;5.35;;;2.80;99.90;;;;;;5057934;28;20624;-81
2023/01/17 04:11:24;;;;;;;7.13;6.05;;;2.80;99.90;;;;;;5054265;28;20170;-85
2023/01/17 04:13:49;;;;;;;8.10;6.18;;;2.60;99.90;;;;;;5053346;28;20643;-84
2023/01/17 04:16:17;;;;;;;5.97;5.03;;;2.60;99.90;;;;;;5052966;28;20210;-83
2023/01/17 04:18:43;;;;;;;7.22;5.63;;;2.70;99.90;;;;;;5054350;28;20164;-85
2023/01/17 04:21:09;;;;;;;7.38;5.80;;;2.70;99.90;;;;;;5054134;28;20186;-82
2023/01/17 04:23:34;;;;;;;11.60;5.20;;;2.70;99.90;;;;;;5054361;28;20167;-82
2023/01/17 04:26:02;;;;;;;12.00;6.30;;;2.70;99.90;;;;;;5054202;28;20187;-84
2023/01/17 04:28:28;;;;;;;8.70;5.20;;;2.80;99.90;;;;;;5053664;28;20568;-82
2023/01/17 04:30:57;;;;;;;7.28;5.57;;;2.70;99.90;;;;;;5054289;28;20206;-82
2023/01/17 04:33:23;;;;;;;8.07;5.80;;;2.60;99.90;;;;;;5052903;28;20174;-82
2023/01/17 04:35:49;;;;;;;8.30;5.22;;;2.70;99.90;;;;;;5053118;28;20191;-82
2023/01/17 04:38:14;;;;;;;8.75;6.20;;;2.80;99.90;;;;;;5052738;28;20214;-80
2023/01/17 04:40:40;;;;;;;8.00;5.50;;;2.80;99.90;;;;;;5053910;28;20213;-85
2023/01/17 04:43:05;;;;;;;11.35;6.18;;;2.80;99.90;;;;;;5053984;28;20835;-82
2023/01/17 04:45:31;;;;;;;9.70;6.37;;;2.90;99.90;;;;;;5053654;28;20187;-84
2023/01/17 04:48:03;;;;;;;6.78;4.55;;;2.80;99.90;;;;;;5052469;28;20175;-81
2023/01/17 04:50:29;;;;;;;12.32;5.13;;;2.70;99.90;;;;;;5052854;28;20182;-81
2023/01/17 04:52:55;;;;;;;8.25;5.25;;;2.70;99.90;;;;;;5052724;28;20179;-84
2023/01/17 04:55:20;;;;;;;12.85;5.95;;;2.70;99.90;;;;;;5053658;28;20360;-83
2023/01/17 04:57:47;;;;;;;11.77;6.38;;;2.50;99.90;;;;;;5051879;28;20210;-81
2023/01/17 05:00:13;;;;;;;11.38;5.97;;;2.60;99.90;;;;;;5053322;28;20218;-82
2023/01/17 05:02:39;;;;;;;13.20;5.90;;;2.60;99.90;;;;;;5053631;28;20171;-85
2023/01/17 05:05:06;;;;;;;8.52;5.80;;;2.60;99.90;;;;;;5051952;28;20667;-85
2023/01/17 05:07:31;;;;;;;8.13;5.80;;;2.70;99.90;;;;;;5052509;28;20174;-84
2023/01/17 05:09:59;;;;;;;12.52;5.97;;;2.90;99.90;;;;;;5052363;28;20175;-85
2023/01/17 05:12:28;;;;;;;13.95;6.15;;;3.00;99.90;;;;;;5053296;28;20167;-82
2023/01/17 05:14:53;;;;;;;7.63;5.53;;;2.90;99.90;;;;;;5052179;28;20195;-82
2023/01/17 05:17:19;;;;;;;9.27;5.65;;;2.80;99.90;;;;;;5053283;28;20218;-82
2023/01/17 05:19:45;;;;;;;10.48;6.25;;;2.80;99.90;;;;;;5051737;28;20182;-83
2023/01/17 05:22:14;;;;;;;16.25;5.90;;;2.90;99.90;;;;;;5053187;28;20563;-82
2023/01/17 05:24:45;;;;;;;9.30;5.88;;;2.80;99.90;;;;;;5051692;28;20183;-82
2023/01/17 05:27:12;;;;;;;8.05;5.55;;;2.70;99.90;;;;;;5051591;28;20220;-81
2023/01/17 05:29:38;;;;;;;8.93;6.10;;;2.60;99.90;;;;;;5051865;28;20627;-83
2023/01/17 05:32:04;;;;;;;11.55;6.80;;;2.80;99.90;;;;;;5053268;28;20163;-83
2023/01/17 05:34:30;;;;;;;11.30;6.20;;;3.00;99.90;;;;;;5051858;28;20278;-83
2023/01/17 05:36:56;;;;;;;17.58;7.00;;;2.90;99.90;;;;;;5052046;28;20199;-83
2023/01/17 05:39:22;;;;;;;8.77;6.32;;;3.00;99.90;;;;;;5051983;28;20171;-81
2023/01/17 05:41:47;;;;;;;13.80;7.20;;;2.70;99.90;;;;;;5051678;28;20190;-83
2023/01/17 05:44:14;;;;;;;7.30;6.07;;;2.60;99.90;;;;;;5051337;28;20274;-84
2023/01/17 05:46:40;;;;;;;12.23;6.30;;;2.60;99.90;;;;;;5052882;28;20687;-83
2023/01/17 05:49:06;;;;;;;11.38;7.18;;;2.70;99.90;;;;;;5051492;28;20720;-84
2023/01/17 05:51:32;;;;;;;6.07;5.47;;;2.80;99.90;;;;;;5051809;28;20174;-84
2023/01/17 05:53:58;;;;;;;20.13;6.55;;;2.70;99.90;;;;;;5051509;28;20171;-82
2023/01/17 05:56:23;;;;;;;10.98;5.80;;;2.90;99.90;;;;;;5052892;28;20206;-82
2023/01/17 05:58:49;;;;;;;18.35;6.53;;;2.80;99.90;;;;;;5053317;28;20248;-81
2023/01/17 06:01:14;;;;;;;9.65;6.00;;;2.80;99.90;;;;;;5067129;28;20217;-81
2023/01/17 06:03:40;;;;;;;10.93;6.22;;;2.90;99.90;;;;;;5074355;28;20175;-81
2023/01/17 06:06:06;;;;;;;10.30;6.18;;;3.00;99.90;;;;;;5060099;28;20202;-84
2023/01/17 06:08:31;;;;;;;12.05;6.20;;;2.90;99.90;;;;;;5051564;28;20524;-84
2023/01/17 06:10:58;;;;;;;7.22;6.15;;;2.80;99.90;;;;;;5051472;28;20624;-82
2023/01/17 06:13:24;;;;;;;12.18;7.05;;;2.90;99.90;;;;;;5051475;28;20532;-85
2023/01/17 06:15:49;;;;;;;7.38;6.00;;;2.70;99.90;;;;;;5052732;28;20270;-83
2023/01/17 06:18:16;;;;;;;5.50;4.95;;;2.60;99.90;;;;;;5053084;28;20294;-82
2023/01/17 06:20:43;;;;;;;13.60;5.60;;;2.80;99.90;;;;;;5056339;28;20179;-82
2023/01/17 06:23:13;;;;;;;6.82;6.13;;;2.70;99.90;;;;;;5056764;28;20167;-82
2023/01/17 06:25:44;;;;;;;10.95;6.30;;;2.70;99.90;;;;;;5055238;28;20194;-84
2023/01/17 06:28:11;;;;;;;9.93;6.18;;;2.80;99.90;;;;;;5056627;28;20162;-85
2023/01/17 06:30:37;;;;;;;9.38;6.40;;;2.70;99.90;;;;;;5057170;28;20171;-83
2023/01/17 06:33:03;;;;;;;5.72;4.88;;;2.70;99.90;;;;;;5060220;28;20258;-81
2023/01/17 06:35:30;;;;;;;9.02;5.65;;;2.70;99.90;;;;;;5053553;28;20198;-82
2023/01/17 06:37:57;;;;;;;8.63;5.97;;;2.80;99.90;;;;;;5056133;28;20213;-85
2023/01/17 06:40:25;;;;;;;8.52;6.25;;;2.80;99.90;;;;;;5060032;28;20217;-81
2023/01/17 06:42:53;;;;;;;14.05;6.07;;;3.10;99.90;;;;;;5068707;28;20159;-81
2023/01/17 06:45:19;;;;;;;13.88;6.57;;;3.00;99.90;;;;;;5030145;28;20187;-82
2023/01/17 06:47:45;;;;;;;7.43;6.00;;;3.00;99.90;;;;;;5070545;28;20520;-81
2023/01/17 06:50:14;;;;;;;15.20;7.00;;;3.10;99.90;;;;;;5067148;28;20178;-80
2023/01/17 06:52:41;;;;;;;8.35;6.00;;;2.90;99.90;;;;;;5060876;28;20171;-79
2023/01/17 06:55:08;;;;;;;11.52;6.53;;;3.10;99.90;;;;;;5055604;28;20191;-81
2023/01/17 06:57:38;;;;;;;6.70;6.03;;;3.10;99.90;;;;;;5065718;28;20219;-80
2023/01/17 07:00:04;;;;;;;14.23;7.32;;;3.10;99.90;;;;;;5045754;28;20179;-81
2023/01/17 07:02:30;;;;;;;14.32;7.43;;;3.10;99.90;;;;;;5063186;28;20175;-81
2023/01/17 07:04:56;;;;;;;13.43;7.00;;;3.10;99.90;;;;;;5067057;28;20202;-81
2023/01/17 07:07:28;;;;;;;6.68;5.95;;;3.10;99.90;;;;;;5067563;28;20216;-82
2023/01/17 07:09:57;;;;;;;13.95;6.57;;;2.90;99.90;;;;;;5048955;28;20183;-86
2023/01/17 07:12:23;;;;;;;13.07;7.20;;;2.80;99.90;;;;;;5065843;28;20171;-86
2023/01/17 07:14:48;;;;;;;12.23;6.03;;;2.80;99.90;;;;;;5057965;28;20317;-85
2023/01/17 07:17:14;;;;;;;8.38;5.82;;;2.80;99.90;;;;;;5068019;28;20253;-84
2023/01/17 07:19:39;;;;;;;13.40;6.60;;;2.90;99.90;;;;;;5068249;28;20777;-87
2023/01/17 07:22:05;;;;;;;17.35;7.78;;;2.80;99.90;;;;;;5062391;28;20182;-84
2023/01/17 07:24:33;;;;;;;14.70;6.97;;;2.80;99.90;;;;;;5059034;28;20215;-86
2023/01/17 07:26:58;;;;;;;13.85;6.63;;;2.70;99.90;;;;;;5059672;28;20181;-87
2023/01/17 07:29:24;;;;;;;17.95;6.55;;;2.70;99.90;;;;;;5059594;28;20168;-86
2023/01/17 07:31:49;;;;;;;16.17;7.05;;;2.80;99.90;;;;;;5059066;28;20171;-85
2023/01/17 07:34:15;;;;;;;24.90;7.80;;;2.90;99.90;;;;;;5060890;28;20204;-85
2023/01/17 07:36:41;;;;;;;16.48;7.22;;;3.00;99.90;;;;;;5043444;28;20222;-85
2023/01/17 07:39:08;;;;;;;16.30;7.90;;;2.80;99.90;;;;;;5059079;28;20533;-84
2023/01/17 07:41:39;;;;;;;14.32;7.15;;;2.90;99.90;;;;;;5060413;28;20263;-84
2023/01/17 07:44:12;;;;;;;15.80;7.88;;;2.80;99.90;;;;;;5069709;28;20175;-82
2023/01/17 07:46:37;;;;;;;12.68;6.45;;;2.70;99.90;;;;;;5045592;28;20183;-82
2023/01/17 07:49:06;;;;;;;10.65;7.00;;;2.80;99.90;;;;;;5066345;28;20167;-82
2023/01/17 07:51:32;;;;;;;12.60;6.47;;;2.60;99.90;;;;;;5065036;28;20206;-82
2023/01/17 07:54:01;;;;;;;11.82;7.10;;;2.60;99.90;;;;;;5069838;28;20201;-81
2023/01/17 07:56:35;;;;;;;10.50;6.85;;;2.60;99.90;;;;;;5032292;28;20222;-82
2023/01/17 07:59:02;;;;;;;16.67;8.40;;;2.70;99.90;;;;;;5060818;28;20163;-81
2023/01/17 08:01:29;;;;;;;11.90;7.85;;;2.60;99.90;;;;;;5064491;28;20602;-80
2023/01/17 08:03:54;;;;;;;11.45;8.02;;;2.50;99.90;;;;;;5056066;28;20246;-83
2023/01/17 08:06:23;;;;;;;14.88;7.60;;;2.50;99.90;;;;;;5062662;28;20209;-81
2023/01/17 08:08:53;;;;;;;15.15;7.28;;;2.60;99.90;;;;;;5059573;28;20186;-83
2023/01/17 08:11:19;;;;;;;16.75;7.63;;;2.80;99.90;;;;;;5042870;28;20182;-83
2023/01/17 08:13:45;;;;;;;12.68;7.97;;;2.80;99.90;;;;;;5064534;28;20167;-81
2023/01/17 08:16:12;;;;;;;11.57;7.35;;;2.70;99.90;;;;;;5069028;28;20182;-82
2023/01/17 08:18:37;;;;;;;13.20;7.40;;;2.90;99.90;;;;;;5076861;28;20202;-86
2023/01/17 08:21:03;;;;;;;10.93;7.50;;;2.90;99.90;;;;;;5054629;28;20183;-86
2023/01/17 08:23:30;;;;;;;20.75;9.38;;;2.60;99.90;;;;;;5054488;28;20175;-86
2023/01/17 08:25:59;;;;;;;17.10;8.35;;;2.60;99.90;;;;;;5054289;28;20183;-85
2023/01/17 08:28:25;;;;;;;19.27;9.27;;;2.80;99.90;;;;;;5053641;28;20262;-86
2023/01/17 08:30:51;;;;;;;11.35;8.02;;;3.10;99.90;;;;;;5053193;28;20207;-83
2023/01/17 08:33:16;;;;;;;25.35;8.23;;;3.10;99.90;;;;;;5053801;28;20179;-82
2023/01/17 08:35:54;;;;;;;17.02;8.27;;;3.20;99.90;;;;;;5053866;28;20861;-86
2023/01/17 08:38:22;;;;;;;15.35;7.47;;;3.10;99.90;;;;;;5053645;28;20205;-82
2023/01/17 08:40:49;;;;;;;19.58;8.45;;;3.10;99.90;;;;;;5051862;28;20258;-82
2023/01/17 08:43:15;;;;;;;30.10;8.00;;;3.00;99.90;;;;;;5052975;28;20174;-87
2023/01/17 08:45:44;;;;;;;11.50;7.60;;;3.20;99.90;;;;;;5054607;28;20183;-85
2023/01/17 08:48:10;;;;;;;15.85;6.93;;;3.20;99.90;;;;;;5053240;28;20642;-84
2023/01/17 08:50:36;;;;;;;17.52;8.43;;;3.30;99.90;;;;;;5053578;28;20171;-85
2023/01/17 08:53:01;;;;;;;31.15;8.50;;;3.30;99.90;;;;;;5052272;28;20163;-85
2023/01/17 08:55:27;;;;;;;23.83;7.70;;;3.30;99.90;;;;;;5052550;28;20191;-85
2023/01/17 08:57:53;;;;;;;13.20;7.43;;;3.30;99.90;;;;;;5052858;28;20745;-82
2023/01/17 09:00:19;;;;;;;15.27;7.53;;;3.50;99.90;;;;;;5053445;28;20171;-85
2023/01/17 09:02:45;;;;;;;11.23;6.55;;;3.60;99.90;;;;;;5053227;28;20178;-84
2023/01/17 09:05:12;;;;;;;13.30;6.35;;;3.80;99.90;;;;;;5051836;28;20192;-83
2023/01/17 09:07:37;;;;;;;19.23;6.35;;;3.80;99.90;;;;;;5053950;28;20211;-81
2023/01/17 09:10:04;;;;;;;9.35;7.13;;;3.90;99.90;;;;;;5053594;28;20549;-83
2023/01/17 09:12:33;;;;;;;14.15;7.15;;;3.80;99.90;;;;;;5053192;28;20178;-84
2023/01/17 09:14:59;;;;;;;15.88;6.82;;;3.90;99.90;;;;;;5050871;28;20179;-83
2023/01/17 09:17:25;;;;;;;8.60;6.53;;;4.00;99.90;;;;;;5051417;28;20238;-80
2023/01/17 09:19:50;;;;;;;14.57;5.72;;;4.10;99.90;;;;;;5051394;28;20240;-81
2023/01/17 09:22:16;;;;;;;33.28;6.40;;;4.10;99.90;;;;;;5052258;28;20624;-81
2023/01/17 09:24:42;;;;;;;18.00;6.53;;;3.90;99.90;;;;;;5051064;28;20183;-81
2023/01/17 09:27:07;;;;;;;16.80;7.50;;;4.00;99.90;;;;;;5051742;28;20317;-81
2023/01/17 09:29:33;;;;;;;11.27;6.47;;;3.90;99.90;;;;;;5056962;28;20163;-80
2023/01/17 09:31:59;;;;;;;13.30;6.10;;;3.90;99.90;;;;;;5053194;28;20187;-81
2023/01/17 09:34:26;;;;;;;13.35;6.82;;;3.90;99.90;;;;;;5058631;28;20188;-81
2023/01/17 09:36:55;;;;;;;10.18;5.85;;;4.00;99.90;;;;;;5056639;28;20725;-82
2023/01/17 09:39:21;;;;;;;16.80;6.90;;;4.00;99.90;;;;;;5054566;28;20170;-80
2023/01/17 09:42:37;;;;;;;9.80;6.38;;;4.10;99.90;;;;;;5055389;28;20175;-80
2023/01/17 09:45:03;;;;;;;11.88;7.10;;;4.00;99.90;;;;;;5046297;28;20199;-81
2023/01/17 09:47:40;;;;;;;16.33;7.72;;;4.10;99.90;;;;;;5053246;28;20185;-81
2023/01/17 09:50:29;;;;;;;9.90;7.43;;;4.20;99.90;;;;;;5052437;28;20524;-81
2023/01/17 09:53:05;;;;;;;10.68;6.22;;;4.30;99.90;;;;;;5056030;28;20163;-81
2023/01/17 09:55:40;;;;;;;12.65;5.63;;;4.40;99.90;;;;;;5056691;28;20205;-81
2023/01/17 09:58:11;;;;;;;11.57;6.00;;;4.50;99.90;;;;;;5055300;28;20210;-83
2023/01/17 10:00:52;;;;;;;10.13;5.85;;;4.30;99.90;;;;;;5056658;28;20181;-82
2023/01/17 10:03:18;;;;;;;6.63;5.28;;;4.10;99.90;;;;;;5056795;28;20171;-81
2023/01/17 10:06:05;;;;;;;7.13;5.00;;;4.20;99.90;;;;;;5056629;28;20240;-82
2023/01/17 10:08:46;;;;;;;9.32;5.78;;;4.20;99.90;;;;;;5056586;28;20254;-83
2023/01/17 10:11:20;;;;;;;10.57;5.43;;;4.30;99.90;;;;;;5055340;28;20250;-81
2023/01/17 10:14:00;;;;;;;12.18;4.95;;;4.40;99.90;;;;;;5055323;28;20536;-81
2023/01/17 10:16:45;;;;;;;16.25;5.03;;;4.50;99.90;;;;;;5055495;28;20187;-83
2023/01/17 10:19:30;;;;;;;16.38;6.30;;;4.50;99.90;;;;;;5056505;28;20167;-83
2023/01/17 10:22:39;;;;;;;9.23;5.15;;;4.70;99.90;;;;;;5056135;28;20171;-80
2023/01/17 10:25:11;;;;;;;13.27;5.68;;;4.90;99.90;;;;;;5056065;28;20232;-85
2023/01/17 10:27:57;;;;;;;9.02;4.28;;;5.10;99.90;;;;;;5056494;28;20174;-82
2023/01/17 10:30:33;;;;;;;6.97;4.85;;;5.20;99.90;;;;;;5055023;28;20171;-80
2023/01/17 10:33:03;;;;;;;12.52;4.95;;;5.10;99.90;;;;;;5055595;28;20171;-82
2023/01/17 10:35:35;;;;;;;10.88;5.00;;;5.20;99.90;;;;;;5063684;28;20187;-80
2023/01/17 10:38:06;;;;;;;18.38;5.85;;;5.20;99.90;;;;;;5063736;28;20244;-82
2023/01/17 10:40:49;;;;;;;7.25;4.65;;;5.20;99.90;;;;;;5079427;28;20163;-81
2023/01/17 10:43:28;;;;;;;15.75;5.72;;;5.30;99.90;;;;;;5057832;28;20655;-81
2023/01/17 10:45:55;;;;;;;17.52;6.55;;;5.40;99.90;;;;;;5055839;28;20184;-84
2023/01/17 10:48:35;;;;;;;27.85;6.05;;;5.70;99.90;;;;;;5054616;28;20221;-80
2023/01/17 10:51:26;;;;;;;15.57;5.57;;;5.50;99.90;;;;;;5063618;28;20182;-85
2023/01/17 10:54:35;;;;;;;12.93;5.53;;;5.10;99.90;;;;;;5056060;28;20262;-85
2023/01/17 10:57:01;;;;;;;8.35;4.30;;;5.10;99.90;;;;;;5055563;28;20673;-81
2023/01/17 10:59:30;;;;;;;5.55;4.15;;;5.00;99.90;;;;;;5055728;28;20293;-81
2023/01/17 11:01:57;;;;;;;5.88;4.50;;;5.10;99.90;;;;;;5054323;28;20174;-83
2023/01/17 11:04:46;;;;;;;11.10;5.60;;;5.10;99.90;;;;;;5054552;28;20190;-84
2023/01/17 11:07:26;;;;;;;5.88;3.95;;;5.30;99.90;;;;;;5055568;28;20689;-83
2023/01/17 11:09:56;;;;;;;7.47;4.47;;;5.20;99.90;;;;;;5055444;28;20549;-84
2023/01/17 11:12:37;;;;;;;7.20;4.10;;;5.10;99.90;;;;;;5054044;28;20170;-80
2023/01/17 11:15:08;;;;;;;10.15;4.35;;;5.10;99.90;;;;;;5053595;28;20191;-82
2023/01/17 11:17:47;;;;;;;14.25;4.80;;;5.10;99.90;;;;;;5053600;28;20298;-81
2023/01/17 11:20:37;;;;;;;23.08;5.07;;;5.20;99.90;;;;;;5054835;28;20205;-83
2023/01/17 11:23:10;;;;;;;8.30;4.10;;;5.20;99.90;;;;;;5054859;28;20172;-83
2023/01/17 11:25:36;;;;;;;5.32;4.47;;;5.10;99.90;;;;;;5054497;28;20664;-83
2023/01/17 11:28:21;;;;;;;18.95;4.95;;;5.30;99.90;;;;;;5054889;28;20171;-86
2023/01/17 11:30:54;;;;;;;11.80;4.32;;;5.30;99.90;;;;;;5055058;28;20168;-85
2023/01/17 11:33:46;;;;;;;5.93;3.78;;;5.40;99.90;;;;;;5055489;28;20250;-81
2023/01/17 11:36:26;;;;;;;14.85;3.78;;;5.50;99.90;;;;;;5055287;28;20226;-80
2023/01/17 11:39:04;;;;;;;6.60;4.18;;;5.50;99.90;;;;;;5053309;28;20710;-81
2023/01/17 11:41:37;;;;;;;14.85;5.63;;;5.60;99.90;;;;;;5054118;28;20163;-82
2023/01/17 11:44:20;;;;;;;23.77;6.82;;;5.40;99.90;;;;;;5054061;28;20250;-81
2023/01/17 11:46:46;;;;;;;5.22;3.35;;;5.40;99.90;;;;;;5054525;28;20171;-81
2023/01/17 11:49:23;;;;;;;5.15;2.22;;;5.50;99.90;;;;;;5054196;28;20167;-80
2023/01/17 11:51:54;;;;;;;6.50;1.65;;;5.60;99.90;;;;;;5054121;28;20640;-80
2023/01/17 11:54:38;;;;;;;3.85;2.05;;;5.60;99.90;;;;;;5054127;28;20672;-81
2023/01/17 11:57:06;;;;;;;4.55;1.55;;;5.50;99.90;;;;;;5053732;28;20194;-80
2023/01/17 11:59:42;;;;;;;2.88;1.10;;;5.40;99.90;;;;;;5053929;28;20171;-80
2023/01/17 12:02:38;;;;;;;5.20;1.40;;;5.20;99.90;;;;;;5052711;28;20552;-81
2023/01/17 12:05:31;;;;;;;13.13;1.70;;;5.20;99.90;;;;;;5053980;28;20187;-80
2023/01/17 12:08:21;;;;;;;7.32;1.90;;;5.30;99.90;;;;;;5053651;28;20253;-81
2023/01/17 12:10:57;;;;;;;10.65;2.13;;;5.20;99.90;;;;;;5053189;28;20258;-81
2023/01/17 12:13:59;;;;;;;4.03;2.00;;;5.30;99.90;;;;;;5053679;28;20175;-82
2023/01/17 12:16:52;;;;;;;6.43;1.70;;;5.40;99.90;;;;;;5053801;28;20172;-82
2023/01/17 12:19:59;;;;;;;2.63;1.40;;;5.70;99.90;;;;;;5053156;28;20282;-80
2023/01/17 12:22:43;;;;;;;4.30;1.20;;;6.00;99.90;;;;;;5053017;28;20532;-81
2023/01/17 12:25:17;;;;;;;4.55;1.48;;;5.80;99.90;;;;;;5053251;28;20234;-81
2023/01/17 12:27:51;;;;;;;6.50;1.80;;;5.50;99.90;;;;;;5053569;28;20170;-80
2023/01/17 12:30:43;;;;;;;8.98;1.63;;;5.70;99.90;;;;;;5053361;28;20293;-81
2023/01/17 12:33:44;;;;;;;6.80;2.22;;;5.70;99.90;;;;;;5042237;28;20186;-78
2023/01/17 12:36:22;;;;;;;8.55;1.83;;;5.60;99.90;;;;;;5052394;28;21265;-81
2023/01/17 12:38:47;;;;;;;7.00;2.03;;;5.70;99.90;;;;;;5052333;28;20185;-81
2023/01/17 12:41:23;;;;;;;12.23;1.73;;;5.90;99.90;;;;;;5052714;28;20175;-80
2023/01/17 12:43:55;;;;;;;9.77;2.60;;;5.80;99.90;;;;;;5053170;28;20171;-81
2023/01/17 12:46:32;;;;;;;10.00;1.90;;;5.80;99.90;;;;;;5052131;28;20167;-80
2023/01/17 12:49:28;;;;;;;4.05;1.90;;;6.00;99.90;;;;;;5053428;28;20175;-82
2023/01/17 12:52:03;;;;;;;2.38;1.98;;;5.80;99.90;;;;;;5027925;28;20210;-83
2023/01/17 12:54:43;;;;;;;8.27;2.00;;;5.70;99.90;;;;;;5052301;28;20530;-81
2023/01/17 12:57:26;;;;;;;6.15;2.35;;;5.50;99.90;;;;;;5053426;28;20612;-81
2023/01/17 13:00:01;;;;;;;5.32;2.08;;;5.60;99.90;;;;;;5052735;28;20170;-82
2023/01/17 13:02:37;;;;;;;5.72;1.95;;;5.50;99.90;;;;;;5053878;28;20234;-84
2023/01/17 13:05:07;;;;;;;14.50;3.20;;;5.90;99.90;;;;;;5051706;28;20630;-83
2023/01/17 13:07:45;;;;;;;8.38;2.83;;;5.90;99.90;;;;;;5053706;28;20762;-83
2023/01/17 13:10:49;;;;;;;7.10;2.70;;;5.80;99.90;;;;;;5053056;28;20212;-82
2023/01/17 13:13:24;;;;;;;4.38;2.35;;;5.50;99.90;;;;;;5053104;28;20177;-83
2023/01/17 13:16:05;;;;;;;6.47;2.00;;;5.40;99.90;;;;;;5053081;28;20210;-81
2023/01/17 13:18:32;;;;;;;10.20;2.45;;;5.50;99.90;;;;;;5053139;28;20210;-84
2023/01/17 13:21:27;;;;;;;7.43;1.60;;;5.50;99.90;;;;;;5053130;28;20179;-81
2023/01/17 13:24:00;;;;;;;6.28;1.92;;;5.00;99.90;;;;;;5052688;28;20167;-80
2023/01/17 13:26:44;;;;;;;2.35;1.40;;;4.70;99.90;;;;;;5052464;28;20174;-82
2023/01/17 13:29:43;;;;;;;11.82;2.03;;;4.40;99.90;;;;;;5051428;28;20178;-84
2023/01/17 13:32:35;;;;;;;4.13;1.80;;;4.30;99.90;;;;;;5052843;28;20171;-83
2023/01/17 13:35:21;;;;;;;6.13;2.47;;;4.40;99.90;;;;;;5052975;28;20632;-82
2023/01/17 13:37:49;;;;;;;16.48;2.72;;;4.50;99.90;;;;;;5051091;28;20228;-80
2023/01/17 13:40:37;;;;;;;7.18;1.80;;;4.60;99.90;;;;;;5053199;28;20295;-84
2023/01/17 13:43:11;;;;;;;4.13;1.90;;;4.60;99.90;;;;;;5052282;28;20182;-80
2023/01/17 13:45:37;;;;;;;13.80;2.58;;;5.00;99.90;;;;;;5051054;28;20187;-82
2023/01/17 13:48:24;;;;;;;6.97;2.05;;;5.20;99.90;;;;;;5052145;28;20152;-82
2023/01/17 13:50:55;;;;;;;3.42;2.00;;;5.20;99.90;;;;;;5052313;28;20166;-80
2023/01/17 13:53:41;;;;;;;10.30;2.60;;;5.40;99.90;;;;;;5052500;28;20195;-82
2023/01/17 13:56:18;;;;;;;5.05;2.00;;;5.50;99.90;;;;;;5052384;28;20678;-82
2023/01/17 13:59:05;;;;;;;6.35;2.00;;;5.50;99.90;;;;;;5052545;28;20182;-81
2023/01/17 14:01:41;;;;;;;8.30;2.55;;;5.50;99.90;;;;;;5052394;28;20183;-81
2023/01/17 14:04:12;;;;;;;10.95;2.33;;;5.30;99.90;;;;;;5052260;28;20177;-82
2023/01/17 14:06:39;;;;;;;7.78;2.45;;;5.50;99.90;;;;;;5052241;28;20167;-85
2023/01/17 14:09:17;;;;;;;7.88;1.80;;;5.40;99.90;;;;;;5050742;28;20678;-83
2023/01/17 14:12:04;;;;;;;9.13;1.85;;;5.40;99.90;;;;;;5052554;28;20692;-81
2023/01/17 14:14:40;;;;;;;3.72;1.63;;;5.40;99.90;;;;;;5050637;28;20555;-80
2023/01/17 14:17:15;;;;;;;9.07;1.58;;;5.40;99.90;;;;;;5050659;28;20198;-81
2023/01/17 14:19:48;;;;;;;7.88;1.83;;;5.50;99.90;;;;;;5051659;28;20600;-81
2023/01/17 14:22:20;;;;;;;11.93;1.85;;;5.20;99.90;;;;;;5052047;28;20619;-82
2023/01/17 14:25:08;;;;;;;2.42;2.00;;;5.00;99.90;;;;;;5050954;28;20241;-82
2023/01/17 14:27:41;;;;;;;4.00;1.30;;;5.10;99.90;;;;;;5050576;28;20353;-82
2023/01/17 14:30:30;;;;;;;5.07;2.22;;;5.20;99.90;;;;;;5052611;28;20180;-84
2023/01/17 14:33:04;;;;;;;10.43;2.78;;;5.30;99.90;;;;;;5039766;28;20183;-83
2023/01/17 14:35:34;;;;;;;2.40;1.45;;;5.50;99.90;;;;;;5050666;28;20191;-81
2023/01/17 14:38:01;;;;;;;10.10;1.92;;;5.20;99.90;;;;;;5051646;28;20729;-81
2023/01/17 14:40:29;;;;;;;6.03;1.58;;;5.10;99.90;;;;;;5055220;28;20164;-83
2023/01/17 14:43:03;;;;;;;4.00;1.70;;;4.90;99.90;;;;;;5055453;28;20190;-81